createdAt,value
2022-12-08T00:00:48.548Z,12.42
2022-12-08T00:06:09.680Z,12.37
2022-12-08T00:11:15.590Z,12.28
2022-12-08T00:16:17.972Z,12.38
2022-12-08T00:21:20.421Z,12.39
2022-12-08T00:26:23.109Z,12.42
2022-12-08T00:31:25.419Z,12.38
2022-12-08T00:36:28.634Z,12.40
2022-12-08T00:41:49.352Z,12.55
2022-12-08T00:46:51.639Z,12.32
2022-12-08T00:51:54.170Z,12.39
2022-12-08T00:56:58.755Z,12.36
2022-12-08T01:02:06.900Z,12.54
2022-12-08T01:07:09.292Z,12.09
2022-12-08T01:12:11.735Z,12.36
2022-12-08T01:17:14.084Z,12.42
2022-12-08T01:22:16.444Z,12.34
2022-12-08T01:27:18.792Z,12.25
2022-12-08T01:32:21.265Z,11.89
2022-12-08T01:37:23.574Z,12.33
2022-12-08T01:42:26.274Z,12.31
2022-12-08T01:47:35.755Z,11.96
2022-12-08T01:52:47.212Z,12.37
2022-12-08T01:57:56.882Z,12.38
2022-12-08T02:03:03.005Z,12.06
2022-12-08T02:08:08.948Z,11.99
2022-12-08T02:13:17.392Z,12.04
2022-12-08T02:18:25.216Z,12.28
2022-12-08T02:23:33.410Z,12.33
2022-12-08T02:28:48.262Z,12.34
2022-12-08T02:34:44.309Z,12.38
2022-12-08T02:39:57.892Z,12.23
2022-12-08T02:45:15.260Z,12.22
2022-12-08T02:50:17.551Z,12.29
2022-12-08T02:55:31.403Z,12.24
2022-12-08T03:01:07.801Z,11.95
2022-12-08T03:06:26.120Z,12.05
2022-12-08T03:11:40.537Z,11.89
2022-12-08T03:16:46.209Z,12.07
2022-12-08T03:21:52.301Z,12.03
2022-12-08T03:27:03.298Z,12.01
2022-12-08T03:32:34.089Z,12.14
2022-12-08T03:37:40.426Z,12.08
2022-12-08T03:42:42.845Z,11.87
2022-12-08T03:47:45.225Z,12.07
2022-12-08T03:52:47.715Z,12.04
2022-12-08T03:57:50.065Z,11.51
2022-12-08T04:02:52.342Z,11.82
2022-12-08T04:07:58.488Z,11.78
2022-12-08T04:13:00.909Z,11.71
2022-12-08T04:18:03.180Z,11.50
2022-12-08T04:23:05.517Z,11.50
2022-12-08T04:28:08.137Z,11.68
2022-12-08T04:33:10.562Z,10.99
2022-12-08T04:38:13.481Z,11.72
2022-12-08T04:43:15.932Z,11.59
2022-12-08T04:48:18.672Z,11.45
2022-12-08T04:53:21.756Z,11.54
2022-12-08T04:58:23.994Z,11.45
2022-12-08T05:03:28.747Z,11.52
2022-12-08T05:08:31.420Z,11.43
2022-12-08T05:13:34.233Z,11.61
2022-12-08T05:18:38.047Z,11.32
2022-12-08T05:23:40.693Z,11.36
2022-12-08T05:28:43.735Z,11.52
2022-12-08T05:33:46.963Z,11.64
2022-12-08T05:38:49.397Z,11.23
2022-12-08T05:43:51.797Z,11.18
2022-12-08T05:48:54.052Z,11.61
2022-12-08T05:53:57.251Z,11.39
2022-12-08T05:58:59.718Z,11.49
2022-12-08T06:04:04.594Z,11.20
2022-12-08T06:09:07.399Z,11.43
2022-12-08T06:14:12.779Z,11.38
2022-12-08T06:19:16.525Z,11.42
2022-12-08T06:24:18.946Z,11.45
2022-12-08T06:29:21.444Z,11.74
2022-12-08T06:34:23.802Z,11.54
2022-12-08T06:39:26.128Z,11.52
2022-12-08T06:44:28.480Z,11.61
2022-12-08T06:49:30.765Z,11.61
2022-12-08T06:54:33.095Z,11.53
2022-12-08T06:59:35.482Z,12.04
2022-12-08T07:04:38.004Z,12.04
2022-12-08T07:09:40.261Z,11.74
2022-12-08T07:14:42.524Z,12.13
2022-12-08T07:19:45.113Z,12.15
2022-12-08T07:24:47.493Z,12.42
2022-12-08T07:29:49.849Z,12.34
2022-12-08T07:34:52.308Z,12.37
2022-12-08T07:39:54.664Z,12.59
2022-12-08T07:44:56.894Z,12.29
2022-12-08T07:49:59.441Z,12.44
2022-12-08T07:55:01.864Z,12.36
2022-12-08T08:00:05.983Z,12.69
2022-12-08T08:05:09.231Z,12.64
2022-12-08T08:10:12.620Z,12.76
2022-12-08T08:15:15.078Z,12.93
2022-12-08T08:20:18.335Z,13.09
2022-12-08T08:25:23.370Z,13.14
2022-12-08T08:30:25.794Z,13.43
2022-12-08T08:35:31.283Z,13.46
2022-12-08T08:40:33.606Z,13.65
2022-12-08T08:45:36.397Z,13.73
2022-12-08T08:50:38.678Z,13.59
2022-12-08T08:55:41.046Z,13.49
2022-12-08T09:00:43.541Z,13.91
2022-12-08T09:05:46.953Z,13.71
2022-12-08T09:10:49.511Z,13.76
2022-12-08T09:15:51.861Z,13.97
2022-12-08T09:20:55.092Z,13.82
2022-12-08T09:25:57.486Z,14.17
2022-12-08T09:30:59.934Z,13.95
2022-12-08T09:36:04.553Z,14.09
2022-12-08T09:41:18.373Z,14.26
2022-12-08T09:46:21.308Z,14.22
2022-12-08T09:51:31.225Z,14.04
2022-12-08T09:56:34.201Z,14.14
2022-12-08T10:01:42.198Z,13.90
2022-12-08T10:07:09.083Z,13.83
2022-12-08T10:12:26.653Z,14.00
2022-12-08T10:17:36.753Z,13.88
2022-12-08T10:22:44.452Z,13.82
2022-12-08T10:27:51.341Z,14.09
2022-12-08T10:38:41.405Z,14.25
2022-12-08T10:54:39.463Z,14.39
2022-12-08T11:16:01.289Z,14.14
2022-12-08T11:21:20.612Z,14.26
2022-12-08T11:48:57.347Z,14.75
2022-12-08T11:54:23.070Z,15.03
2022-12-08T12:05:05.261Z,15.59
2022-12-08T12:10:33.204Z,15.85
2022-12-08T12:15:57.790Z,15.87
2022-12-08T12:21:13.148Z,15.68
2022-12-08T12:26:28.722Z,15.71
2022-12-08T12:31:42.322Z,15.62
2022-12-08T12:36:59.307Z,15.74
2022-12-08T12:42:03.094Z,15.49
2022-12-08T12:47:11.858Z,15.85
2022-12-08T12:52:16.869Z,15.84
2022-12-08T12:57:19.168Z,15.92
2022-12-08T13:02:21.401Z,15.98
2022-12-08T13:07:27.667Z,15.98
2022-12-08T13:12:30.683Z,15.88
2022-12-08T13:17:37.073Z,15.97
2022-12-08T13:22:54.911Z,15.81
2022-12-08T13:27:57.529Z,15.82
2022-12-08T13:33:17.842Z,15.62
2022-12-08T13:38:27.092Z,15.35
2022-12-08T13:43:55.585Z,15.66
2022-12-08T13:50:55.398Z,15.57
2022-12-08T14:00:06.142Z,15.52
2022-12-08T14:05:18.024Z,15.51
2022-12-08T14:10:26.498Z,15.52
2022-12-08T14:15:34.007Z,15.10
2022-12-08T14:21:12.269Z,15.22
2022-12-08T14:26:03.946Z,15.15
2022-12-08T14:31:06.922Z,15.35
2022-12-08T14:36:10.809Z,15.43
2022-12-08T14:41:13.153Z,15.09
2022-12-08T14:46:24.303Z,15.14
2022-12-08T14:51:31.231Z,15.03
2022-12-08T14:56:52.290Z,15.14
2022-12-08T15:02:10.507Z,15.02
2022-12-08T15:07:14.778Z,14.75
2022-12-08T15:12:27.259Z,14.80
2022-12-08T15:18:00.467Z,14.72
2022-12-08T15:23:03.131Z,14.47
2022-12-08T15:28:05.655Z,14.22
2022-12-08T15:33:07.981Z,14.11
2022-12-08T15:38:36.721Z,14.18
2022-12-08T15:43:39.950Z,13.90
2022-12-08T15:48:42.388Z,13.82
2022-12-08T15:53:44.686Z,13.96
2022-12-08T15:58:56.157Z,13.67
2022-12-08T16:04:37.003Z,13.79
2022-12-08T16:09:43.964Z,13.76
2022-12-08T16:15:47.277Z,13.41
2022-12-08T16:20:15.948Z,13.46
2022-12-08T16:25:20.328Z,13.24
2022-12-08T16:30:24.013Z,13.63
2022-12-08T16:35:26.287Z,13.36
2022-12-08T16:40:28.726Z,13.36
2022-12-08T16:45:31.215Z,13.23
2022-12-08T16:50:35.773Z,13.40
2022-12-08T16:55:38.160Z,13.13
2022-12-08T17:00:41.011Z,13.07
2022-12-08T17:05:45.053Z,12.88
2022-12-08T17:11:07.571Z,12.77
2022-12-08T17:16:17.039Z,12.92
2022-12-08T17:21:19.689Z,12.57
2022-12-08T17:26:21.924Z,12.69
2022-12-08T17:31:29.369Z,12.94
2022-12-08T17:36:32.533Z,12.74
2022-12-08T17:41:35.455Z,12.98
2022-12-08T17:46:42.086Z,12.96
2022-12-08T17:51:54.176Z,12.95
2022-12-08T17:56:58.968Z,12.83
2022-12-08T18:02:01.836Z,12.67
2022-12-08T18:07:04.741Z,12.60
2022-12-08T18:12:07.330Z,12.62
2022-12-08T18:17:09.653Z,12.76
2022-12-08T18:22:12.714Z,12.92
2022-12-08T18:27:15.232Z,12.64
2022-12-08T18:32:17.608Z,12.79
2022-12-08T18:37:20.123Z,12.81
2022-12-08T18:42:25.347Z,12.84
2022-12-08T18:47:27.664Z,12.80
2022-12-08T18:52:32.298Z,12.64
2022-12-08T18:57:37.918Z,12.62
2022-12-08T19:02:40.515Z,12.79
2022-12-08T19:07:43.346Z,12.66
2022-12-08T19:12:45.766Z,12.80
2022-12-08T19:17:48.464Z,12.57
2022-12-08T19:22:50.784Z,12.75
2022-12-08T19:27:53.137Z,12.62
2022-12-08T19:32:55.512Z,12.43
2022-12-08T19:37:57.775Z,12.49
2022-12-08T19:43:18.567Z,12.46
2022-12-08T19:48:23.972Z,12.43
2022-12-08T19:53:26.570Z,12.22
2022-12-08T19:58:28.917Z,12.20
2022-12-08T20:03:31.368Z,12.29
2022-12-08T20:08:33.793Z,12.20
2022-12-08T20:13:46.473Z,12.48
2022-12-08T20:18:49.373Z,12.24
2022-12-08T20:23:51.871Z,12.24
2022-12-08T20:28:54.454Z,12.15
2022-12-08T20:33:56.925Z,12.14
2022-12-08T20:38:59.246Z,11.93
2022-12-08T20:44:01.755Z,12.06
2022-12-08T20:49:05.748Z,12.22
2022-12-08T20:54:10.246Z,12.11
2022-12-08T20:59:18.105Z,12.05
2022-12-08T21:04:21.768Z,12.28
2022-12-08T21:09:24.487Z,12.02
2022-12-08T21:14:27.093Z,12.07
2022-12-08T21:19:29.600Z,12.22
2022-12-08T21:24:34.399Z,11.89
2022-12-08T21:29:37.386Z,12.19
2022-12-08T21:34:40.089Z,11.92
2022-12-08T21:39:42.531Z,12.08
2022-12-08T21:44:45.070Z,12.21
2022-12-08T21:49:47.432Z,12.02
2022-12-08T21:54:50.628Z,12.24
2022-12-08T21:59:53.135Z,12.28
2022-12-08T22:04:55.632Z,12.11
2022-12-08T22:09:58.179Z,12.33
2022-12-08T22:15:00.714Z,12.29
2022-12-08T22:20:04.360Z,12.39
2022-12-08T22:25:08.323Z,12.46
2022-12-08T22:30:12.021Z,12.18
2022-12-08T22:35:14.718Z,12.30
2022-12-08T22:40:17.202Z,12.41
2022-12-08T22:45:19.578Z,12.17
2022-12-08T22:50:22.014Z,12.27
2022-12-08T22:55:24.314Z,12.05
2022-12-08T23:00:27.017Z,12.39
2022-12-08T23:05:33.401Z,12.01
2022-12-08T23:10:36.504Z,12.22
2022-12-08T23:15:39.627Z,12.00
2022-12-08T23:20:42.768Z,12.12
2022-12-08T23:25:45.240Z,11.89
2022-12-08T23:30:47.764Z,11.96
2022-12-08T23:35:59.570Z,12.30
2022-12-08T23:41:07.728Z,12.31
2022-12-08T23:46:10.437Z,12.31
2022-12-08T23:51:13.376Z,12.39
2022-12-08T23:56:18.110Z,12.40
